Weather History for KORC - March, 2013

Change the Weather History Date:

Tuesday, March 5, 2013

  Actual Average (KSHL) Record (KSHL)
Temperature  
Mean Temperature 24 °F -  
Max Temperature 28 °F 37 °F - (-1)
Min Temperature 21 °F 17 °F - (-1)
Degree Days  
Heating Degree Days 40    
Moisture  
Dew Point 20 °F    
Average Humidity 78    
Maximum Humidity 86    
Minimum Humidity 69    
Precipitation  
Precipitation 0.00 in - - ()
Sea Level Pressure  
Sea Level Pressure 30.13 in    
Wind  
Wind Speed 17 mph (NW)    
Max Wind Speed 23 mph    
Max Gust Speed 31 mph    
Visibility 8 miles    
Events Snow    
Averages and records for this station are not official NWS values.
T = Trace of Precipitation, MM = Missing Value Source: NWS Daily Summary

Daily Weather History Graph

Daily Weather History Graph

Search for Another Location

Airport or City:

Trip Planner

Search our weather history database for the weather conditions in past years. The results will help you decide how hot, cold, wet, or windy it might be!

Date:

Astronomy

Mar. 05, 2013 Rise Set
Actual Time 6:53 AM CST 6:18 PM CST
Civil Twilight 6:24 AM CST 6:47 PM CST
Nautical Twilight 5:51 AM CST 7:20 PM CST
Astronomical Twilight 5:18 AM CST 7:53 PM CST
Moon 2:12 AM CST (3/5) 11:52 AM CST (3/5)
Length of Visible Light 12h 22m
Length of Day
11h 25m
Last Quarter, 40% of the Moon is Illuminated
Mar 5
Last Quarter
Mar 11
New
Mar 19
First Quarter
Mar 27
Full
Apr 2
Last Quarter

Hourly Weather History & Observations

Time (CST) Temp. Windchill Dew Point Humidity Pressure Visibility Wind Dir Wind Speed Gust Speed Precip Events Conditions
12:35 AM 26.6 °F 14.3 °F 21.2 °F 80% 29.96 in 10.0 mi West 16.1 mph - N/A   Scattered Clouds
12:55 AM 28.4 °F 15.4 °F 21.2 °F 74% 29.96 in 10.0 mi WNW 19.6 mph 24.2 mph N/A   Mostly Cloudy
1:15 AM 26.6 °F 12.0 °F 19.4 °F 74% 29.97 in 10.0 mi WNW 23.0 mph 27.6 mph N/A   Overcast
1:35 AM 26.6 °F 14.3 °F 21.2 °F 80% 29.97 in 10.0 mi NW 16.1 mph - N/A Snow Light Snow
2:15 AM 26.6 °F 13.8 °F 21.2 °F 80% 29.97 in 10.0 mi WNW 17.3 mph - N/A Snow Light Snow
2:55 AM 26.6 °F 15.2 °F 21.2 °F 80% 29.96 in 10.0 mi WNW 13.8 mph - N/A Snow Light Snow
3:15 AM 24.8 °F 12.9 °F 21.2 °F 86% 29.96 in 7.0 mi West 13.8 mph - N/A Snow Light Snow
3:35 AM 24.8 °F 10.7 °F 19.4 °F 80% 29.95 in 10.0 mi West 19.6 mph - N/A Snow Light Snow
3:55 AM 24.8 °F 11.5 °F 19.4 °F 80% 29.95 in 10.0 mi West 17.3 mph 24.2 mph N/A   Overcast
4:15 AM 24.8 °F 12.4 °F 19.4 °F 80% 29.95 in 10.0 mi West 15.0 mph - N/A Snow Light Snow
4:35 AM 24.8 °F 12.4 °F 19.4 °F 80% 29.95 in 7.0 mi West 15.0 mph - N/A Snow Light Snow
5:15 AM 24.8 °F 11.9 °F 19.4 °F 80% 29.95 in 10.0 mi West 16.1 mph - N/A   Overcast
5:35 AM 24.8 °F 11.9 °F 19.4 °F 80% 29.94 in 10.0 mi West 16.1 mph - N/A Snow Light Snow
5:55 AM 24.8 °F 11.9 °F 19.4 °F 80% 29.94 in 7.0 mi West 16.1 mph - N/A Snow Light Snow
6:35 AM 26.6 °F 15.2 °F 21.2 °F 80% 29.95 in 7.0 mi WNW 13.8 mph - N/A Snow Light Snow
7:15 AM 26.6 °F 13.8 °F 21.2 °F 80% 29.97 in 2.5 mi NW 17.3 mph 24.2 mph N/A Snow Light Snow
7:35 AM 26.6 °F 14.3 °F 21.2 °F 80% 29.98 in 1.5 mi NNW 16.1 mph 20.7 mph N/A Snow Light Snow
7:55 AM 26.6 °F 15.2 °F 21.2 °F 80% 29.99 in 3.0 mi NW 13.8 mph 19.6 mph N/A Snow Light Snow
8:15 AM 26.6 °F 15.2 °F 21.2 °F 80% 30.00 in 7.0 mi NW 13.8 mph 19.6 mph N/A Snow Light Snow
8:35 AM 26.6 °F 15.2 °F 23.0 °F 86% 30.01 in 0.5 mi NW 13.8 mph 18.4 mph N/A Snow Light Snow
8:55 AM 26.6 °F 15.2 °F 23.0 °F 86% 30.02 in 1.2 mi NNW 13.8 mph - N/A Snow Light Snow
9:15 AM 26.6 °F 14.7 °F 23.0 °F 86% 30.03 in 1.0 mi NNW 15.0 mph 18.4 mph N/A Snow Light Snow
9:35 AM 26.6 °F 13.1 °F 23.0 °F 86% 30.04 in 0.8 mi NNW 19.6 mph 25.3 mph N/A Snow Light Snow
9:55 AM 26.6 °F 13.1 °F 21.2 °F 80% 30.05 in 0.8 mi NNW 19.6 mph 27.6 mph N/A Snow Light Snow
10:15 AM 26.6 °F 12.7 °F 21.2 °F 80% 30.06 in 2.0 mi NNW 20.7 mph 31.1 mph N/A Snow Light Snow
10:35 AM 24.8 °F 11.1 °F 19.4 °F 80% 30.08 in 1.8 mi NNW 18.4 mph 28.8 mph N/A Snow Light Snow
10:55 AM 26.6 °F 13.8 °F 21.2 °F 80% 30.09 in 4.0 mi NNW 17.3 mph 25.3 mph N/A Snow Light Snow
11:15 AM 26.6 °F 13.4 °F 21.2 °F 80% 30.09 in 5.0 mi NNW 18.4 mph 26.5 mph N/A   Overcast
11:35 AM 26.6 °F 12.4 °F 21.2 °F 80% 30.11 in 4.0 mi NNW 21.9 mph 27.6 mph N/A   Haze
12:15 PM 26.6 °F 13.1 °F 21.2 °F 80% 30.12 in 10.0 mi NNW 19.6 mph 26.5 mph N/A   Overcast
12:35 PM 26.6 °F 13.8 °F 19.4 °F 74% 30.13 in 10.0 mi NNW 17.3 mph 29.9 mph N/A   Overcast
12:55 PM 26.6 °F 12.7 °F 21.2 °F 80% 30.14 in 7.0 mi NW 20.7 mph 26.5 mph N/A Snow Light Snow
1:15 PM 26.6 °F 12.4 °F 19.4 °F 74% 30.15 in 10.0 mi NNW 21.9 mph 27.6 mph N/A   Overcast
1:35 PM 26.6 °F 13.4 °F 19.4 °F 74% 30.15 in 10.0 mi NNW 18.4 mph 23.0 mph N/A   Overcast
1:55 PM 28.4 °F 15.4 °F 21.2 °F 74% 30.16 in 10.0 mi NNW 19.6 mph 26.5 mph N/A   Overcast
2:15 PM 26.6 °F 13.4 °F 19.4 °F 74% 30.16 in 10.0 mi NNW 18.4 mph 28.8 mph N/A   Overcast
2:35 PM 26.6 °F 12.4 °F 21.2 °F 80% 30.17 in 3.0 mi NNW 21.9 mph 28.8 mph N/A Snow Light Snow
2:55 PM 26.6 °F 13.1 °F 21.2 °F 80% 30.18 in 5.0 mi NW 19.6 mph 26.5 mph N/A Snow Light Snow
3:15 PM 26.6 °F 12.4 °F 19.4 °F 74% 30.18 in 5.0 mi NW 21.9 mph 28.8 mph N/A Snow Light Snow
3:35 PM 26.6 °F 13.4 °F 19.4 °F 74% 30.19 in 10.0 mi NNW 18.4 mph 26.5 mph N/A   Overcast
3:55 PM 26.6 °F 12.4 °F 17.6 °F 69% 30.20 in 10.0 mi NNW 21.9 mph 27.6 mph N/A   Overcast
4:15 PM 26.6 °F 14.3 °F 17.6 °F 69% 30.22 in 10.0 mi NNW 16.1 mph 28.8 mph N/A   Overcast
4:35 PM 26.6 °F 15.7 °F 17.6 °F 69% 30.23 in 10.0 mi NNW 12.7 mph 24.2 mph N/A   Overcast
4:55 PM 26.6 °F 15.7 °F 17.6 °F 69% 30.24 in 10.0 mi NNW 12.7 mph 25.3 mph N/A   Overcast
5:15 PM 26.6 °F 14.7 °F 19.4 °F 74% 30.25 in 7.0 mi NNW 15.0 mph 23.0 mph N/A Snow Light Snow
5:35 PM 24.8 °F 11.9 °F 19.4 °F 80% 30.25 in 7.0 mi NNW 16.1 mph 21.9 mph N/A Snow Light Snow
5:55 PM 24.8 °F 12.4 °F 19.4 °F 80% 30.26 in 7.0 mi NNW 15.0 mph - N/A Snow Light Snow
6:15 PM 24.8 °F 11.9 °F 19.4 °F 80% 30.27 in 5.0 mi NW 16.1 mph 20.7 mph N/A Snow Light Snow
6:35 PM 24.8 °F 12.4 °F 19.4 °F 80% 30.27 in 7.0 mi NNW 15.0 mph 19.6 mph N/A Snow Light Snow
6:55 PM 24.8 °F 11.5 °F 19.4 °F 80% 30.27 in 10.0 mi NNW 17.3 mph 21.9 mph N/A Snow Light Snow
7:15 PM 24.8 °F 12.4 °F 19.4 °F 80% 30.28 in 10.0 mi NNW 15.0 mph 19.6 mph N/A Snow Light Snow
7:35 PM 24.8 °F 11.5 °F 19.4 °F 80% 30.28 in 10.0 mi NW 17.3 mph 20.7 mph N/A   Overcast
7:55 PM 24.8 °F 12.4 °F 17.6 °F 74% 30.29 in 10.0 mi NNW 15.0 mph 23.0 mph N/A   Overcast
8:15 PM 24.8 °F 14.6 °F 17.6 °F 74% 30.30 in 10.0 mi NNW 10.4 mph 18.4 mph N/A   Overcast
8:35 PM 24.8 °F 12.4 °F 17.6 °F 74% 30.29 in 10.0 mi NNW 15.0 mph 18.4 mph N/A   Overcast
8:55 PM 24.8 °F 14.6 °F 17.6 °F 74% 30.30 in 10.0 mi NNW 10.4 mph - N/A   Overcast
9:15 PM 24.8 °F 12.4 °F 17.6 °F 74% 30.30 in 10.0 mi North 15.0 mph - N/A   Overcast
9:35 PM 23.0 °F 11.7 °F 15.8 °F 74% 30.31 in 10.0 mi NNW 11.5 mph 20.7 mph N/A   Overcast
9:55 PM 23.0 °F 10.1 °F 15.8 °F 74% 30.31 in 10.0 mi North 15.0 mph 20.7 mph N/A   Overcast
10:15 PM 23.0 °F 12.4 °F 15.8 °F 74% 30.33 in 10.0 mi North 10.4 mph 20.7 mph N/A   Overcast
10:35 PM 23.0 °F 11.7 °F 15.8 °F 74% 30.33 in 10.0 mi NNW 11.5 mph 19.6 mph N/A   Overcast
10:55 PM 23.0 °F 11.1 °F 17.6 °F 80% 30.33 in 10.0 mi NNW 12.7 mph 17.3 mph N/A   Overcast
11:15 PM 21.2 °F 11.7 °F 17.6 °F 86% 30.34 in 10.0 mi NNW 8.1 mph 17.3 mph N/A   Overcast
11:35 PM 21.2 °F 9.5 °F 17.6 °F 86% 30.34 in 10.0 mi NNW 11.5 mph - N/A   Overcast
11:55 PM 21.2 °F 12.6 °F 17.6 °F 86% 30.35 in 10.0 mi NNW 6.9 mph - N/A   Overcast